Time;durP1;ratioP1;P1;durP2;ratioP2;P2;SDS_P1;SDS_P2;PMS_P1;PMS_P2;Temp;Humidity;BMP_temperature;BMP_pressure;BME280_temperature;BME280_humidity;BME280_pressure;Samples;Min_cycle;Max_cycle;Signal;HPM_P1;HPM_P2
2022/04/14 00:01:28;;;;;;;;;;;256.90;1561.60;;;;;;5036684;28;20488;-79
2022/04/14 00:03:53;;;;;;;19.58;10.68;;;256.90;1561.60;;;;;;5035973;28;20318;-79
2022/04/14 00:06:19;;;;;;;;;;;256.80;1587.20;;;;;;5036408;28;20029;-76
2022/04/14 00:08:45;;;;;;;22.27;9.43;;;256.80;1587.20;;;;;;5035769;28;19923;-79
2022/04/14 00:11:10;;;;;;;;;;;256.60;1612.80;;;;;;5036445;28;20025;-80
2022/04/14 00:13:36;;;;;;;17.45;8.93;;;256.70;1638.40;;;;;;5036150;28;20265;-79
2022/04/14 00:16:02;;;;;;;;;;;256.50;1638.40;;;;;;5036427;28;20025;-79
2022/04/14 00:18:27;;;;;;;18.00;9.38;;;256.50;1689.60;;;;;;5036207;28;20382;-80
2022/04/14 00:20:53;;;;;;;23.15;8.43;;;256.40;1740.80;;;;;;5036426;28;20032;-83
2022/04/14 00:23:19;;;;;;;;;;;256.40;1766.40;;;;;;5036664;28;20021;-79
2022/04/14 00:25:44;;;;;;;16.15;7.97;;;256.20;1792.00;;;;;;5035976;28;20376;-81
2022/04/14 00:28:10;;;;;;;;;;;256.10;1817.60;;;;;;5036081;28;20029;-80
2022/04/14 00:30:36;;;;;;;16.45;8.05;;;256.10;1817.60;;;;;;5035897;28;19909;-78
2022/04/14 00:33:01;;;;;;;;;;;256.10;1792.00;;;;;;5053965;28;20016;-79
2022/04/14 00:35:27;;;;;;;17.48;9.45;;;231.30;1792.00;;;;;;5035752;28;19974;-81
2022/04/14 00:37:53;;;;;;;;;;;231.20;1792.00;;;;;;5053734;28;20025;-79
2022/04/14 00:40:19;;;;;;;20.00;9.75;;;231.10;1792.00;;;;;;5053321;28;19912;-78
2022/04/14 00:42:44;;;;;;;;;;;231.00;1792.00;;;;;;5035954;28;20027;-83
2022/04/14 00:45:10;;;;;;;19.83;10.43;;;231.00;1792.00;;;;;;5053218;28;19912;-79
2022/04/14 00:47:36;;;;;;;;;;;230.90;1817.60;;;;;;5036183;28;20032;-79
2022/04/14 00:50:03;;;;;;;19.05;10.10;;;230.90;1817.60;;;;;;5035332;28;19913;-79
2022/04/14 00:52:29;;;;;;;14.57;9.07;;;230.90;1817.60;;;;;;5035317;28;20036;-80
2022/04/14 00:54:55;;;;;;;17.27;8.68;;;230.70;1843.20;;;;;;5034364;28;20489;-80
2022/04/14 00:57:20;;;;;;;;;;;230.60;1868.80;;;;;;5035568;28;20389;-78
2022/04/14 00:59:46;;;;;;;14.50;8.35;;;230.50;1894.40;;;;;;5035187;28;19958;-79
2022/04/14 01:02:12;;;;;;;;;;;230.40;1920.00;;;;;;5035738;28;20033;-79
2022/04/14 01:04:38;;;;;;;14.57;7.80;;;230.40;1945.60;;;;;;5052910;28;19905;-78
2022/04/14 01:07:07;;;;;;;;;;;205.70;1945.60;;;;;;5036225;28;20083;-79
2022/04/14 01:09:34;;;;;;;16.48;8.13;;;205.70;1945.60;;;;;;5034964;28;19946;-80
2022/04/14 01:12:00;;;;;;;14.68;8.00;;;205.70;1971.20;;;;;;5034809;28;20031;-78
2022/04/14 01:14:34;;;;;;;13.30;7.78;;;205.70;1945.60;;;;;;5034951;28;20107;-80
2022/04/14 01:17:02;;;;;;;13.90;7.47;;;205.70;1971.20;;;;;;5034865;28;20044;-80
2022/04/14 01:19:28;;;;;;;17.23;7.78;;;205.60;1971.20;;;;;;5035342;28;20029;-80
2022/04/14 01:22:21;;;;;;;13.63;6.70;;;205.70;1996.80;;;;;;5034090;28;20029;-81
2022/04/14 01:24:48;;;;;;;13.63;7.43;;;205.70;1996.80;;;;;;5052825;28;20033;-79
2022/04/14 01:27:13;;;;;;;;;;;230.40;1971.20;;;;;;5035338;28;20021;-80
2022/04/14 01:29:39;;;;;;;14.52;7.80;;;205.70;1996.80;;;;;;5034955;28;19920;-81
2022/04/14 01:32:05;;;;;;;;;;;205.60;2022.40;;;;;;5052968;28;20124;-79
2022/04/14 01:34:31;;;;;;;17.77;8.43;;;205.70;1996.80;;;;;;5034835;28;19905;-80
2022/04/14 01:37:00;;;;;;;;;;;205.60;1971.20;;;;;;5035445;28;20044;-79
2022/04/14 01:39:30;;;;;;;17.50;8.23;;;205.70;1945.60;;;;;;5034346;28;19955;-80
2022/04/14 01:41:56;;;;;;;15.70;7.55;;;205.70;1894.40;;;;;;5034562;28;20025;-79
2022/04/14 01:44:22;;;;;;;18.92;9.05;;;230.40;1843.20;;;;;;5035059;28;20104;-81
2022/04/14 01:46:48;;;;;;;;;;;230.40;1792.00;;;;;;5035209;28;20115;-79
2022/04/14 01:49:13;;;;;;;15.68;7.57;;;205.70;1766.40;;;;;;5034404;28;19927;-79
2022/04/14 01:51:39;;;;;;;;;;;205.70;1766.40;;;;;;5034985;28;20131;-80
2022/04/14 01:54:05;;;;;;;19.05;7.57;;;205.50;1766.40;;;;;;5034683;28;19923;-79
2022/04/14 01:56:31;;;;;;;16.25;7.90;;;205.70;1766.40;;;;;;5034510;28;20376;-78
2022/04/14 01:58:58;;;;;;;15.48;8.25;;;205.70;1740.80;;;;;;5034052;28;20439;-79
2022/04/14 02:01:24;;;;;;;13.85;7.57;;;205.60;1740.80;;;;;;5034708;28;20067;-79
2022/04/14 02:03:50;;;;;;;14.20;7.90;;;205.50;1740.80;;;;;;5052515;28;20120;-81
2022/04/14 02:06:16;;;;;;;21.25;7.28;;;205.50;1740.80;;;;;;5034458;28;20067;-78
2022/04/14 02:08:43;;;;;;;16.90;8.07;;;205.50;1740.80;;;;;;5034356;28;20033;-77
2022/04/14 02:11:10;;;;;;;18.50;8.25;;;205.40;1766.40;;;;;;5034644;28;20021;-79
2022/04/14 02:13:36;;;;;;;18.20;7.75;;;205.50;1766.40;;;;;;5034009;28;20043;-79
2022/04/14 02:16:03;;;;;;;19.10;9.10;;;205.50;1766.40;;;;;;5052598;28;20157;-78
2022/04/14 02:18:28;;;;;;;16.10;8.70;;;205.40;1868.80;;;;;;5034552;28;20024;-79
2022/04/14 02:20:54;;;;;;;;;;;205.30;1971.20;;;;;;5035196;28;20116;-79
2022/04/14 02:23:20;;;;;;;18.42;9.05;;;205.30;2022.40;;;;;;5034140;28;19908;-79
2022/04/14 02:25:46;;;;;;;16.95;7.75;;;205.30;2022.40;;;;;;5034766;28;20029;-86
2022/04/14 02:28:13;;;;;;;;;;;205.30;1996.80;;;;;;5038564;28;20033;-81
2022/04/14 02:30:39;;;;;;;;;;;205.70;1971.20;;;;;;5039051;28;20003;-78
2022/04/14 02:33:04;;;;;;;18.20;8.00;;;205.20;1945.60;;;;;;5038462;28;19999;-79
2022/04/14 02:35:30;;;;;;;;;;;205.10;1920.00;;;;;;5038670;28;20029;-81
2022/04/14 02:37:56;;;;;;;15.38;6.78;;;204.90;1920.00;;;;;;5055829;28;19927;-86
2022/04/14 02:40:26;;;;;;;16.52;8.48;;;205.00;1945.60;;;;;;5037926;28;20052;-81
2022/04/14 02:42:57;;;;;;;13.35;7.60;;;205.00;1920.00;;;;;;5038020;28;20024;-80
2022/04/14 02:45:24;;;;;;;19.23;9.32;;;205.10;1894.40;;;;;;5038116;28;20048;-80
2022/04/14 02:47:50;;;;;;;15.23;7.85;;;205.10;1868.80;;;;;;5038126;28;20029;-80
2022/04/14 02:50:16;;;;;;;17.38;8.57;;;205.30;1868.80;;;;;;5038040;28;20033;-81
2022/04/14 02:52:42;;;;;;;16.80;8.73;;;205.30;1817.60;;;;;;5037826;28;20076;-82
2022/04/14 02:55:09;;;;;;;18.55;9.60;;;205.40;1817.60;;;;;;5038035;28;20094;-81
2022/04/14 02:57:35;;;;;;;23.60;10.75;;;205.20;1817.60;;;;;;5037452;28;20481;-82
2022/04/14 03:00:01;;;;;;;;;;;205.20;1817.60;;;;;;5038466;28;20039;-81
2022/04/14 03:02:26;;;;;;;20.48;9.40;;;205.30;1817.60;;;;;;5037712;28;20280;-79
2022/04/14 03:04:53;;;;;;;;;;;205.40;1792.00;;;;;;5037994;28;20021;-80
2022/04/14 03:07:19;;;;;;;18.85;8.23;;;205.50;1766.40;;;;;;5037752;28;20003;-80
2022/04/14 03:09:46;;;;;;;17.27;8.73;;;205.60;1766.40;;;;;;5037542;28;20052;-80
2022/04/14 03:12:12;;;;;;;18.98;8.27;;;205.60;1715.20;;;;;;5037167;28;20029;-79
2022/04/14 03:14:37;;;;;;;;;;;205.60;1689.60;;;;;;5038103;28;20027;-82
2022/04/14 03:17:04;;;;;;;19.45;8.98;;;205.60;1689.60;;;;;;5037290;28;19911;-80
2022/04/14 03:19:29;;;;;;;18.70;8.57;;;205.50;1689.60;;;;;;5037091;28;20417;-83
2022/04/14 03:21:55;;;;;;;;;;;205.30;1715.20;;;;;;5037502;28;20041;-82
2022/04/14 03:24:21;;;;;;;19.17;8.63;;;205.20;1766.40;;;;;;5055359;28;19909;-80
2022/04/14 03:26:46;;;;;;;;;;;205.10;1868.80;;;;;;5037565;28;20036;-80
2022/04/14 03:29:12;;;;;;;15.75;7.85;;;204.90;1945.60;;;;;;5036549;28;20402;-80
2022/04/14 03:31:38;;;;;;;;;;;180.10;2022.40;;;;;;5055161;28;20052;-80
2022/04/14 03:34:03;;;;;;;15.48;8.73;;;180.00;1996.80;;;;;;5035956;28;19904;-80
2022/04/14 03:36:29;;;;;;;;;;;179.80;1971.20;;;;;;5037659;28;20082;-78
2022/04/14 03:38:55;;;;;;;17.20;8.40;;;179.80;1945.60;;;;;;5053866;28;19909;-86
2022/04/14 03:41:20;;;;;;;;;;;179.70;1945.60;;;;;;5037582;28;20017;-80
2022/04/14 03:43:46;;;;;;;16.50;8.77;;;179.70;1920.00;;;;;;5036779;28;19908;-81
2022/04/14 03:46:14;;;;;;;;;;;179.90;1920.00;;;;;;5037517;28;20028;-80
2022/04/14 03:48:42;;;;;;;18.30;8.60;;;180.00;1920.00;;;;;;5037147;28;19912;-80
2022/04/14 03:51:07;;;;;;;15.73;8.60;;;179.90;1920.00;;;;;;5036825;28;20024;-82
2022/04/14 03:53:33;;;;;;;;;;;179.80;1920.00;;;;;;5034021;28;20057;-78
2022/04/14 03:55:59;;;;;;;17.17;8.80;;;179.80;1920.00;;;;;;5033774;28;20338;-79
2022/04/14 03:58:24;;;;;;;;;;;179.90;1920.00;;;;;;5034202;28;20037;-80
2022/04/14 04:00:50;;;;;;;16.42;8.60;;;180.10;1920.00;;;;;;5033592;28;19905;-79
2022/04/14 04:03:16;;;;;;;;;;;180.10;1894.40;;;;;;5033823;28;20030;-79
2022/04/14 04:05:42;;;;;;;17.42;9.05;;;180.10;1894.40;;;;;;5033268;28;19905;-81
2022/04/14 04:08:07;;;;;;;;;;;180.10;1894.40;;;;;;5033591;28;20021;-77
2022/04/14 04:10:34;;;;;;;16.02;8.30;;;180.10;1894.40;;;;;;5032634;28;20356;-77
2022/04/14 04:12:59;;;;;;;17.00;8.93;;;204.80;1894.40;;;;;;5033118;28;20036;-79
2022/04/14 04:15:25;;;;;;;;;;;179.90;1945.60;;;;;;5033287;28;20030;-83
2022/04/14 04:17:54;;;;;;;19.50;9.32;;;179.70;1996.80;;;;;;5034084;28;19959;-77
2022/04/14 04:20:22;;;;;;;24.20;11.98;;;179.50;2048.00;;;;;;5034076;28;20100;-80
2022/04/14 04:22:48;;;;;;;21.20;10.27;;;179.60;2022.40;;;;;;5032335;28;20033;-79
2022/04/14 04:25:14;;;;;;;;;;;179.80;2022.40;;;;;;5032753;28;20025;-79
2022/04/14 04:27:39;;;;;;;23.80;10.65;;;179.90;2022.40;;;;;;5032141;28;19905;-79
2022/04/14 04:30:06;;;;;;;;;;;179.70;2022.40;;;;;;5032862;28;20037;-80
2022/04/14 04:32:34;;;;;;;25.63;10.80;;;179.50;2124.80;;;;;;5031857;28;19994;-83
2022/04/14 04:35:04;;;;;;;24.20;9.77;;;179.30;2124.80;;;;;;5032356;28;20056;-81
2022/04/14 04:37:30;;;;;;;25.25;10.98;;;179.60;2124.80;;;;;;5030230;28;20021;-89
2022/04/14 04:39:56;;;;;;;21.33;9.40;;;179.70;2099.20;;;;;;5033007;28;20042;-80
2022/04/14 04:42:22;;;;;;;;;;;179.60;2073.60;;;;;;5032648;28;20025;-79
2022/04/14 04:44:48;;;;;;;26.23;10.10;;;179.40;2124.80;;;;;;5031904;28;19905;-80
2022/04/14 04:47:13;;;;;;;;;;;179.50;2124.80;;;;;;5032587;28;20049;-82
2022/04/14 04:49:39;;;;;;;30.15;10.15;;;179.80;2073.60;;;;;;5031529;28;19943;-79
2022/04/14 04:52:05;;;;;;;;;;;180.00;2073.60;;;;;;5031967;28;20497;-80
2022/04/14 04:54:31;;;;;;;29.83;11.73;;;180.10;2048.00;;;;;;5032534;28;20250;-78
2022/04/14 04:56:57;;;;;;;;;;;180.10;2048.00;;;;;;5031759;28;20049;-80
2022/04/14 04:59:23;;;;;;;28.77;12.38;;;180.00;2048.00;;;;;;5032308;28;19905;-81
2022/04/14 05:01:51;;;;;;;35.13;13.02;;;180.00;2150.40;;;;;;5031716;28;20504;-79
2022/04/14 05:04:17;;;;;;;36.38;13.27;;;180.10;2150.40;;;;;;5032201;28;20075;-81
2022/04/14 05:06:43;;;;;;;;;;;180.10;2099.20;;;;;;5032244;28;20029;-79
2022/04/14 05:09:09;;;;;;;29.67;12.57;;;204.90;2073.60;;;;;;5031869;28;19917;-83
2022/04/14 05:11:34;;;;;;;;;;;205.00;2048.00;;;;;;5032332;28;20075;-77
2022/04/14 05:14:01;;;;;;;25.85;13.73;;;205.10;2022.40;;;;;;5031270;28;20399;-79
2022/04/14 05:16:27;;;;;;;36.60;14.75;;;205.20;1945.60;;;;;;5031202;28;20029;-78
2022/04/14 05:18:53;;;;;;;;;;;205.40;1894.40;;;;;;5032399;28;20017;-78
2022/04/14 05:21:19;;;;;;;23.67;13.80;;;205.50;1843.20;;;;;;5032785;28;20410;-82
2022/04/14 05:23:44;;;;;;;;;;;205.50;1843.20;;;;;;5032607;28;20517;-81
2022/04/14 05:26:10;;;;;;;21.35;12.50;;;205.60;1817.60;;;;;;5031962;28;19905;-81
2022/04/14 05:28:36;;;;;;;;;;;230.40;1817.60;;;;;;5032161;28;20120;-76
2022/04/14 05:31:02;;;;;;;38.53;13.95;;;230.40;1843.20;;;;;;5031895;28;20000;-81
2022/04/14 05:33:28;;;;;;;24.33;11.95;;;230.50;1894.40;;;;;;5032219;28;20021;-83
2022/04/14 05:35:54;;;;;;;29.60;12.20;;;230.60;1868.80;;;;;;5032199;28;20079;-84
2022/04/14 05:38:20;;;;;;;;;;;230.80;1843.20;;;;;;5032559;28;20022;-82
2022/04/14 05:40:46;;;;;;;21.63;11.50;;;230.90;1792.00;;;;;;5032127;28;20269;-80
2022/04/14 05:43:15;;;;;;;;;;;230.90;1740.80;;;;;;5032301;28;20095;-80
2022/04/14 05:45:44;;;;;;;21.73;10.82;;;231.00;1689.60;;;;;;5032349;28;20367;-83
2022/04/14 05:48:12;;;;;;;25.90;13.00;;;231.00;1664.00;;;;;;5031948;28;20017;-80
2022/04/14 05:50:38;;;;;;;17.40;10.77;;;231.10;1664.00;;;;;;5031823;28;20083;-82
2022/04/14 05:53:03;;;;;;;;;;;231.20;1638.40;;;;;;5031972;28;20045;-80
2022/04/14 05:55:29;;;;;;;20.70;11.07;;;231.20;1638.40;;;;;;5032797;28;19924;-82
2022/04/14 05:57:55;;;;;;;;;;;256.00;1664.00;;;;;;5031886;28;20469;-80
2022/04/14 06:00:21;;;;;;;16.08;9.80;;;256.00;1638.40;;;;;;5032569;28;19912;-78
2022/04/14 06:02:47;;;;;;;23.15;12.95;;;256.10;1612.80;;;;;;5034782;28;20029;-79
2022/04/14 06:05:13;;;;;;;23.17;12.07;;;256.20;1664.00;;;;;;5035868;28;20477;-80
2022/04/14 06:07:39;;;;;;;20.40;11.65;;;256.10;1740.80;;;;;;5035936;28;20065;-78
2022/04/14 06:10:05;;;;;;;;;;;256.10;1740.80;;;;;;5035672;28;20032;-77
2022/04/14 06:12:30;;;;;;;23.42;10.68;;;256.00;1792.00;;;;;;5034989;28;19905;-76
2022/04/14 06:14:56;;;;;;;;;;;256.20;1792.00;;;;;;5035154;28;20040;-76
2022/04/14 06:17:22;;;;;;;24.40;12.38;;;256.20;1740.80;;;;;;5034933;28;19905;-76
2022/04/14 06:19:47;;;;;;;;;;;256.40;1689.60;;;;;;5036207;28;20469;-77
2022/04/14 06:22:13;;;;;;;25.02;12.73;;;256.50;1689.60;;;;;;5034553;28;19912;-79
2022/04/14 06:24:39;;;;;;;;;;;256.80;1740.80;;;;;;5035337;28;20034;-78
2022/04/14 06:27:06;;;;;;;30.38;11.80;;;256.70;1689.60;;;;;;5035788;28;19905;-78
2022/04/14 06:29:32;;;;;;;23.42;12.00;;;256.90;1689.60;;;;;;5034630;28;20041;-83
2022/04/14 06:31:57;;;;;;;25.98;12.00;;;281.60;1689.60;;;;;;5035550;28;20033;-75
2022/04/14 06:34:23;;;;;;;;;;;281.80;1638.40;;;;;;5035236;28;20061;-91
2022/04/14 06:36:49;;;;;;;23.48;11.10;;;282.00;1638.40;;;;;;5034602;28;19912;-80
2022/04/14 06:39:15;;;;;;;18.38;11.02;;;282.00;1612.80;;;;;;5034875;28;20029;-78
2022/04/14 06:41:41;;;;;;;21.10;10.65;;;282.10;1612.80;;;;;;5034895;28;20489;-79
2022/04/14 06:44:07;;;;;;;26.92;12.73;;;282.40;1587.20;;;;;;5034632;28;20446;-77
2022/04/14 06:46:33;;;;;;;17.63;11.13;;;282.50;1587.20;;;;;;5034240;28;20025;-82
2022/04/14 06:48:59;;;;;;;19.50;11.13;;;307.20;1638.40;;;;;;5034191;28;20474;-79
2022/04/14 06:51:24;;;;;;;;;;;307.40;1664.00;;;;;;5035987;28;20060;-79
2022/04/14 06:53:50;;;;;;;21.30;12.45;;;307.40;1664.00;;;;;;5037608;28;19974;-80
2022/04/14 06:56:16;;;;;;;;;;;307.60;1664.00;;;;;;5055927;28;20025;-79
2022/04/14 06:58:42;;;;;;;17.27;10.32;;;307.60;1664.00;;;;;;5055300;28;19995;-84
2022/04/14 07:01:08;;;;;;;;;;;307.80;1638.40;;;;;;5037846;28;20118;-76
2022/04/14 07:03:34;;;;;;;18.60;10.50;;;307.80;1689.60;;;;;;5037288;28;20341;-77
2022/04/14 07:06:00;;;;;;;19.73;10.95;;;308.00;1689.60;;;;;;5037740;28;20540;-78
2022/04/14 07:08:26;;;;;;;15.27;9.18;;;308.10;1664.00;;;;;;5037289;28;20500;-79
2022/04/14 07:10:53;;;;;;;13.77;9.27;;;332.80;1612.80;;;;;;5037378;28;20036;-84
2022/04/14 07:13:18;;;;;;;13.45;7.95;;;332.90;1612.80;;;;;;5053688;28;20021;-77
2022/04/14 07:15:45;;;;;;;13.52;7.55;;;333.10;1536.00;;;;;;5035997;28;20504;-77
2022/04/14 07:18:11;;;;;;;10.73;7.05;;;333.20;1433.60;;;;;;5054743;28;20044;-75
2022/04/14 07:20:37;;;;;;;13.50;9.80;;;333.30;1433.60;;;;;;5036965;28;20029;-82
2022/04/14 07:23:03;;;;;;;12.10;7.53;;;333.40;1484.80;;;;;;5054728;28;20099;-74
2022/04/14 07:25:32;;;;;;;17.88;8.65;;;333.50;1433.60;;;;;;5036626;28;20125;-74
2022/04/14 07:27:59;;;;;;;16.38;8.18;;;333.50;1484.80;;;;;;5036760;28;20032;-77
2022/04/14 07:30:26;;;;;;;14.65;8.50;;;333.70;1459.20;;;;;;5054825;28;20187;-80
2022/04/14 07:32:53;;;;;;;13.20;8.05;;;358.40;1459.20;;;;;;5037528;28;20031;-82
2022/04/14 07:35:25;;;;;;;13.98;7.82;;;358.50;1433.60;;;;;;5037117;28;20540;-80
2022/04/14 07:37:51;;;;;;;16.33;7.07;;;358.60;1433.60;;;;;;5036839;28;20017;-77
2022/04/14 07:40:17;;;;;;;13.35;7.18;;;358.70;1382.40;;;;;;5036791;28;20032;-78
2022/04/14 07:42:45;;;;;;;11.35;6.55;;;358.80;1382.40;;;;;;5036812;28;20111;-80
2022/04/14 07:45:13;;;;;;;13.63;7.45;;;358.80;1356.80;;;;;;5037001;28;20029;-79
2022/04/14 07:47:41;;;;;;;14.32;8.75;;;358.90;1382.40;;;;;;5036637;28;20029;-80
2022/04/14 07:50:08;;;;;;;13.52;7.78;;;359.00;1408.00;;;;;;5037115;28;20064;-81
2022/04/14 07:52:44;;;;;;;11.40;6.80;;;359.10;1382.40;;;;;;5036620;28;20052;-80
2022/04/14 07:55:10;;;;;;;11.15;7.28;;;359.10;1382.40;;;;;;5036678;28;20041;-83
2022/04/14 07:57:36;;;;;;;13.27;6.68;;;359.20;1331.20;;;;;;5036722;28;20481;-79
2022/04/14 08:00:05;;;;;;;12.45;6.97;;;384.00;1331.20;;;;;;5035814;28;20029;-79
2022/04/14 08:02:30;;;;;;;11.57;6.68;;;359.30;1331.20;;;;;;5036241;28;20392;-78
2022/04/14 08:04:56;;;;;;;10.55;6.88;;;384.10;1305.60;;;;;;5036316;28;20079;-79
2022/04/14 08:07:22;;;;;;;10.65;6.50;;;384.40;1280.00;;;;;;5036439;28;20027;-80
2022/04/14 08:09:47;;;;;;;13.15;7.00;;;384.40;1254.40;;;;;;5036642;28;20384;-79
2022/04/14 08:12:14;;;;;;;13.05;7.38;;;384.50;1228.80;;;;;;5036505;28;20025;-80
2022/04/14 08:14:40;;;;;;;15.13;7.63;;;384.40;1228.80;;;;;;5036187;28;20025;-80
2022/04/14 08:17:05;;;;;;;17.48;6.90;;;384.40;1280.00;;;;;;5036576;28;20028;-81
2022/04/14 08:19:32;;;;;;;14.98;8.20;;;384.40;1280.00;;;;;;5035766;28;20550;-80
2022/04/14 08:21:57;;;;;;;13.43;7.65;;;384.70;1305.60;;;;;;5036402;28;20124;-82
2022/04/14 08:24:24;;;;;;;13.85;6.90;;;384.80;1280.00;;;;;;5036205;28;20501;-82
2022/04/14 08:26:52;;;;;;;10.82;6.97;;;409.60;1382.40;;;;;;5036659;28;20052;-82
2022/04/14 08:29:17;;;;;;;16.55;6.90;;;409.70;1331.20;;;;;;5036339;28;20094;-80
2022/04/14 08:31:43;;;;;;;9.35;5.60;;;409.70;1254.40;;;;;;5035892;28;20028;-81
2022/04/14 08:34:09;;;;;;;12.95;5.85;;;409.70;1203.20;;;;;;5035544;28;20530;-81
2022/04/14 08:36:36;;;;;;;8.38;5.68;;;409.80;1228.80;;;;;;5035778;28;20029;-81
2022/04/14 08:39:02;;;;;;;10.38;5.55;;;409.90;1228.80;;;;;;5054032;28;20080;-82
2022/04/14 08:41:32;;;;;;;7.97;5.07;;;410.00;1203.20;;;;;;5035863;28;20037;-80
2022/04/14 08:44:02;;;;;;;11.57;5.18;;;410.00;1203.20;;;;;;5053527;28;20028;-80
2022/04/14 08:46:29;;;;;;;10.90;5.72;;;410.10;1228.80;;;;;;5035686;28;20714;-79
2022/04/14 08:49:02;;;;;;;7.75;5.43;;;410.00;1177.60;;;;;;5034950;28;20171;-77
2022/04/14 08:51:29;;;;;;;11.40;5.57;;;410.10;1228.80;;;;;;5035196;28;20530;-78
2022/04/14 08:53:56;;;;;;;10.60;5.18;;;410.20;1203.20;;;;;;5035346;28;20040;-78
2022/04/14 08:56:23;;;;;;;9.02;5.10;;;410.20;1203.20;;;;;;5053416;28;20021;-79
2022/04/14 08:58:54;;;;;;;11.02;5.45;;;410.30;1177.60;;;;;;5035067;28;20017;-78
2022/04/14 09:01:20;;;;;;;9.50;5.63;;;410.30;1152.00;;;;;;5035224;28;20021;-80
2022/04/14 09:03:45;;;;;;;14.00;6.07;;;410.40;1152.00;;;;;;5053044;28;20428;-80
2022/04/14 09:06:13;;;;;;;12.85;6.60;;;435.20;1254.40;;;;;;5034269;28;20397;-78
2022/04/14 09:08:38;;;;;;;13.15;5.40;;;435.30;1254.40;;;;;;5034680;28;20044;-77
2022/04/14 09:11:08;;;;;;;11.68;6.07;;;435.30;1203.20;;;;;;5034583;28;20041;-78
2022/04/14 09:13:37;;;;;;;9.00;4.95;;;435.50;1177.60;;;;;;5034471;28;20562;-78
2022/04/14 09:16:03;;;;;;;9.50;5.70;;;435.60;1203.20;;;;;;5034781;28;20036;-79
2022/04/14 09:18:30;;;;;;;11.93;5.50;;;435.60;1228.80;;;;;;5052833;28;20029;-79
2022/04/14 09:21:06;;;;;;;14.05;5.68;;;435.70;1203.20;;;;;;5052603;28;20013;-78
2022/04/14 09:23:32;;;;;;;;;;;435.80;1228.80;;;;;;5035269;28;20037;-80
2022/04/14 09:26:09;;;;;;;12.57;6.83;;;435.90;1203.20;;;;;;5068026;28;19911;-77
2022/04/14 09:28:35;;;;;;;13.90;6.60;;;435.90;1203.20;;;;;;5034314;28;20465;-76
2022/04/14 09:31:01;;;;;;;9.27;5.40;;;435.90;1203.20;;;;;;5034482;28;20107;-77
2022/04/14 09:33:27;;;;;;;11.88;6.13;;;436.00;1177.60;;;;;;5034544;28;20021;-77
2022/04/14 09:36:13;;;;;;;13.23;5.85;;;436.10;1177.60;;;;;;5051648;28;20477;-77
2022/04/14 09:38:52;;;;;;;9.18;5.50;;;460.80;1203.20;;;;;;5034890;28;20081;-78
2022/04/14 09:41:33;;;;;;;9.65;5.90;;;460.90;1177.60;;;;;;5052225;28;20028;-77
2022/04/14 09:44:01;;;;;;;13.85;5.63;;;461.10;1152.00;;;;;;5034249;28;20021;-77
2022/04/14 09:46:28;;;;;;;8.52;5.25;;;461.30;1152.00;;;;;;5052190;28;20021;-76
2022/04/14 09:49:05;;;;;;;12.68;5.38;;;461.40;1126.40;;;;;;5034143;28;20035;-78
2022/04/14 09:51:32;;;;;;;10.73;5.65;;;461.40;1100.80;;;;;;5034069;28;20060;-78
2022/04/14 09:54:17;;;;;;;11.57;5.63;;;461.60;1075.20;;;;;;5034133;28;20033;-77
2022/04/14 09:56:47;;;;;;;8.25;5.07;;;486.40;1075.20;;;;;;5051936;28;20156;-78
2022/04/14 09:59:16;;;;;;;11.05;5.70;;;486.40;1075.20;;;;;;5034347;28;20036;-79
2022/04/14 10:01:43;;;;;;;10.18;5.38;;;486.60;1024.00;;;;;;5034034;28;20025;-78
2022/04/14 10:04:29;;;;;;;11.68;4.97;;;486.80;1075.20;;;;;;5051940;28;20061;-78
2022/04/14 10:07:03;;;;;;;24.92;9.07;;;486.80;1075.20;;;;;;5034383;28;20116;-77
2022/04/14 10:09:34;;;;;;;15.05;5.38;;;486.90;1075.20;;;;;;5033953;28;20477;-78
2022/04/14 10:12:00;;;;;;;11.77;5.63;;;486.90;1049.60;;;;;;5034303;28;20393;-78
2022/04/14 10:14:26;;;;;;;7.72;4.30;;;487.00;1049.60;;;;;;5051795;28;20036;-78
2022/04/14 10:16:53;;;;;;;13.57;5.28;;;487.20;998.40;;;;;;5034020;28;20017;-78
2022/04/14 10:19:19;;;;;;;12.38;4.72;;;487.30;1024.00;;;;;;5034271;28;20469;-79
2022/04/14 10:21:45;;;;;;;6.32;4.18;;;487.30;1049.60;;;;;;5033951;28;20116;-79
2022/04/14 10:24:15;;;;;;;10.98;4.38;;;512.00;972.80;;;;;;5034143;28;20511;-78
2022/04/14 10:26:43;;;;;;;9.48;3.92;;;512.20;998.40;;;;;;5033955;28;20166;-79
2022/04/14 10:29:12;;;;;;;7.57;4.50;;;512.50;947.20;;;;;;5034085;28;20098;-79
2022/04/14 10:31:38;;;;;;;8.80;4.47;;;512.60;921.60;;;;;;5033948;28;20104;-79
2022/04/14 10:34:06;;;;;;;7.80;5.05;;;512.80;921.60;;;;;;5034102;28;20032;-79
2022/04/14 10:36:43;;;;;;;11.68;4.75;;;512.90;921.60;;;;;;5033848;28;20079;-79
2022/04/14 10:39:14;;;;;;;45.47;8.52;;;512.70;947.20;;;;;;5033767;28;20021;-79
2022/04/14 10:41:46;;;;;;;9.93;4.68;;;512.70;947.20;;;;;;5033992;28;20568;-79
2022/04/14 10:44:13;;;;;;;10.10;4.45;;;537.70;921.60;;;;;;5033167;28;20037;-78
2022/04/14 10:46:41;;;;;;;8.70;4.93;;;538.00;896.00;;;;;;5033535;28;20443;-78
2022/04/14 10:49:15;;;;;;;9.15;4.90;;;538.20;921.60;;;;;;5054787;28;20108;-78
2022/04/14 10:51:43;;;;;;;10.57;4.78;;;538.20;870.40;;;;;;5054745;28;20091;-79
2022/04/14 10:54:12;;;;;;;7.45;4.30;;;538.30;870.40;;;;;;5037383;28;20029;-78
2022/04/14 10:56:38;;;;;;;11.13;4.50;;;538.10;896.00;;;;;;5037128;28;20032;-78
2022/04/14 10:59:05;;;;;;;8.30;4.10;;;538.50;896.00;;;;;;5055325;28;20025;-79
2022/04/14 11:01:50;;;;;;;9.32;4.60;;;538.50;896.00;;;;;;5037034;28;20432;-78
2022/04/14 11:04:42;;;;;;;9.23;4.50;;;563.40;870.40;;;;;;5055049;28;20053;-82
2022/04/14 11:07:09;;;;;;;6.90;4.00;;;563.50;870.40;;;;;;5037106;28;20025;-78
2022/04/14 11:09:55;;;;;;;6.05;3.85;;;563.60;870.40;;;;;;5054803;28;20516;-79
2022/04/14 11:12:40;;;;;;;6.85;3.60;;;563.30;870.40;;;;;;5037804;28;20029;-82
2022/04/14 11:15:08;;;;;;;6.82;3.70;;;563.60;844.80;;;;;;5037309;28;20021;-81
2022/04/14 11:17:48;;;;;;;7.18;4.55;;;563.70;819.20;;;;;;5037353;28;20036;-81
2022/04/14 11:20:37;;;;;;;7.80;4.13;;;563.70;844.80;;;;;;5037493;28;20024;-81
2022/04/14 11:23:20;;;;;;;7.47;3.72;;;563.70;819.20;;;;;;5037593;28;20125;-82
2022/04/14 11:26:01;;;;;;;9.30;4.25;;;564.00;819.20;;;;;;5055596;28;20466;-81
2022/04/14 11:28:32;;;;;;;8.57;4.70;;;564.00;819.20;;;;;;5037412;28;20029;-81
2022/04/14 11:30:58;;;;;;;14.60;5.65;;;564.00;844.80;;;;;;5037530;28;20477;-81
2022/04/14 11:33:35;;;;;;;7.53;4.47;;;564.00;870.40;;;;;;5055367;28;20025;-81
2022/04/14 11:36:15;;;;;;;9.38;4.15;;;564.00;793.60;;;;;;5037036;28;20129;-81
2022/04/14 11:38:53;;;;;;;5.70;3.67;;;563.80;793.60;;;;;;5037306;28;20076;-82
2022/04/14 11:41:44;;;;;;;6.20;3.90;;;588.80;768.00;;;;;;5037505;28;20112;-82
2022/04/14 11:44:12;;;;;;;13.32;4.60;;;588.80;793.60;;;;;;5037629;28;20087;-82
2022/04/14 11:46:41;;;;;;;9.60;3.90;;;563.90;844.80;;;;;;5037073;28;20074;-83
2022/04/14 11:49:09;;;;;;;9.52;5.45;;;563.60;844.80;;;;;;5037441;28;20535;-79
2022/04/14 11:51:41;;;;;;;7.60;3.53;;;563.90;793.60;;;;;;5056436;28;20071;-83
2022/04/14 11:54:07;;;;;;;5.22;3.13;;;564.00;844.80;;;;;;5057936;28;20029;-82
2022/04/14 11:56:33;;;;;;;10.07;4.32;;;563.60;819.20;;;;;;5041723;28;20031;-82
2022/04/14 11:58:58;;;;;;;6.10;3.80;;;563.70;844.80;;;;;;5036549;28;20025;-82
2022/04/14 12:01:24;;;;;;;7.32;3.95;;;563.70;819.20;;;;;;5036626;28;20029;-82
2022/04/14 12:03:50;;;;;;;14.68;4.45;;;563.80;844.80;;;;;;5037122;28;20029;-82
2022/04/14 12:06:16;;;;;;;8.07;4.03;;;563.90;844.80;;;;;;5036853;28;20036;-82
2022/04/14 12:08:53;;;;;;;9.88;4.30;;;564.00;870.40;;;;;;5037001;28;20124;-82
2022/04/14 12:11:20;;;;;;;8.57;3.58;;;588.80;844.80;;;;;;5038340;28;20036;-83
2022/04/14 12:13:46;;;;;;;5.82;3.38;;;588.80;844.80;;;;;;5036958;28;20090;-83
2022/04/14 12:16:12;;;;;;;5.53;2.83;;;564.10;819.20;;;;;;5036657;28;20028;-83
2022/04/14 12:18:49;;;;;;;11.07;3.67;;;564.00;768.00;;;;;;5036539;28;20021;-82
2022/04/14 12:21:24;;;;;;;7.82;3.65;;;563.90;793.60;;;;;;5036120;28;20044;-82
2022/04/14 12:23:52;;;;;;;9.07;3.90;;;588.80;793.60;;;;;;5036794;28;20167;-83
2022/04/14 12:26:19;;;;;;;8.95;4.63;;;589.20;768.00;;;;;;5036302;28;20033;-83
2022/04/14 12:28:47;;;;;;;9.43;4.20;;;588.80;742.40;;;;;;5036533;28;20481;-82